sensor_id;sensor_type;location;lat;lon;timestamp;pressure;altitude;pressure_sealevel;temperature;humidity
54369;BME280;40266;52.434;17.056;2024-02-26T00:01:48;99639.89;;;0.89;98.60
54369;BME280;40266;52.434;17.056;2024-02-26T00:05:24;99639.85;;;0.83;98.47
54369;BME280;40266;52.434;17.056;2024-02-26T00:08:29;99634.67;;;0.77;98.36
54369;BME280;40266;52.434;17.056;2024-02-26T00:12:00;99633.41;;;0.70;98.22
54369;BME280;40266;52.434;17.056;2024-02-26T00:15:24;99632.52;;;0.64;98.20
54369;BME280;40266;52.434;17.056;2024-02-26T00:23:08;99622.48;;;0.54;98.34
54369;BME280;40266;52.434;17.056;2024-02-26T00:26:50;99625.38;;;0.48;98.51
54369;BME280;40266;52.434;17.056;2024-02-26T00:48:33;99623.32;;;0.24;98.36
54369;BME280;40266;52.434;17.056;2024-02-26T00:55:57;99617.04;;;0.11;98.34
54369;BME280;40266;52.434;17.056;2024-02-26T01:10:47;99618.80;;;-0.04;98.82
54369;BME280;40266;52.434;17.056;2024-02-26T01:14:16;99621.17;;;-0.07;98.79
54369;BME280;40266;52.434;17.056;2024-02-26T01:17:42;99624.95;;;-0.09;99.01
54369;BME280;40266;52.434;17.056;2024-02-26T01:24:40;99623.17;;;-0.14;98.91
54369;BME280;40266;52.434;17.056;2024-02-26T01:46:24;99627.30;;;-0.34;99.40
54369;BME280;40266;52.434;17.056;2024-02-26T01:49:36;99625.52;;;-0.40;99.49
54369;BME280;40266;52.434;17.056;2024-02-26T02:04:16;99626.06;;;-0.54;99.78
54369;BME280;40266;52.434;17.056;2024-02-26T02:29:09;99633.05;;;-0.57;100.00
54369;BME280;40266;52.434;17.056;2024-02-26T02:36:28;99637.56;;;-0.53;100.00
54369;BME280;40266;52.434;17.056;2024-02-26T02:40:01;99635.52;;;-0.50;100.00
54369;BME280;40266;52.434;17.056;2024-02-26T02:47:02;99624.45;;;-0.42;100.00
54369;BME280;40266;52.434;17.056;2024-02-26T02:57:37;99624.70;;;-0.35;100.00
54369;BME280;40266;52.434;17.056;2024-02-26T03:08:39;99613.36;;;-0.36;100.00
54369;BME280;40266;52.434;17.056;2024-02-26T03:12:03;99610.42;;;-0.38;100.00
54369;BME280;40266;52.434;17.056;2024-02-26T03:15:14;99602.52;;;-0.41;100.00
54369;BME280;40266;52.434;17.056;2024-02-26T03:22:24;99593.58;;;-0.43;100.00
54369;BME280;40266;52.434;17.056;2024-02-26T03:29:43;99590.64;;;-0.44;100.00
54369;BME280;40266;52.434;17.056;2024-02-26T03:43:29;99594.92;;;-0.45;100.00
54369;BME280;40266;52.434;17.056;2024-02-26T03:46:39;99597.52;;;-0.44;100.00
54369;BME280;40266;52.434;17.056;2024-02-26T03:49:55;99595.11;;;-0.44;100.00
54369;BME280;40266;52.434;17.056;2024-02-26T04:00:20;99604.05;;;-0.40;100.00
54369;BME280;40266;52.434;17.056;2024-02-26T04:08:01;99607.31;;;-0.42;100.00
54369;BME280;40266;52.434;17.056;2024-02-26T04:11:27;99613.13;;;-0.44;100.00
54369;BME280;40266;52.434;17.056;2024-02-26T04:14:48;99614.98;;;-0.45;100.00
54369;BME280;40266;52.434;17.056;2024-02-26T04:21:55;99615.45;;;-0.50;100.00
54369;BME280;40266;52.434;17.056;2024-02-26T04:28:44;99619.98;;;-0.59;100.00
54369;BME280;40266;52.434;17.056;2024-02-26T04:32:13;99617.71;;;-0.64;100.00
54369;BME280;40266;52.434;17.056;2024-02-26T04:35:39;99619.35;;;-0.71;100.00
54369;BME280;40266;52.434;17.056;2024-02-26T04:46:43;99625.75;;;-0.81;100.00
54369;BME280;40266;52.434;17.056;2024-02-26T04:50:37;99626.06;;;-0.83;100.00
54369;BME280;40266;52.434;17.056;2024-02-26T05:01:43;99626.48;;;-0.92;100.00
54369;BME280;40266;52.434;17.056;2024-02-26T05:11:43;99627.96;;;-0.96;100.00
54369;BME280;40266;52.434;17.056;2024-02-26T05:29:10;99638.27;;;-1.09;100.00
54369;BME280;40266;52.434;17.056;2024-02-26T05:36:20;99645.95;;;-1.10;100.00
54369;BME280;40266;52.434;17.056;2024-02-26T05:47:09;99659.48;;;-1.11;100.00
54369;BME280;40266;52.434;17.056;2024-02-26T05:50:36;99663.41;;;-1.11;100.00
54369;BME280;40266;52.434;17.056;2024-02-26T05:53:48;99666.88;;;-1.09;100.00
54369;BME280;40266;52.434;17.056;2024-02-26T06:01:17;99662.27;;;-1.06;100.00
54369;BME280;40266;52.434;17.056;2024-02-26T06:26:45;99657.91;;;-0.73;100.00
54369;BME280;40266;52.434;17.056;2024-02-26T06:33:14;99659.83;;;-0.21;100.00
54369;BME280;40266;52.434;17.056;2024-02-26T06:36:42;99661.24;;;0.02;100.00
54369;BME280;40266;52.434;17.056;2024-02-26T06:39:45;99665.98;;;0.11;100.00
54369;BME280;40266;52.434;17.056;2024-02-26T06:58:21;99667.39;;;0.62;100.00
54369;BME280;40266;52.434;17.056;2024-02-26T07:05:41;99678.08;;;0.94;100.00
54369;BME280;40266;52.434;17.056;2024-02-26T07:08:47;99677.31;;;1.11;100.00
54369;BME280;40266;52.434;17.056;2024-02-26T07:12:19;99677.13;;;1.53;100.00
54369;BME280;40266;52.434;17.056;2024-02-26T07:16:21;99674.29;;;2.71;100.00
54369;BME280;40266;52.434;17.056;2024-02-26T07:19:45;99665.04;;;3.89;99.04
54369;BME280;40266;52.434;17.056;2024-02-26T07:26:11;99665.77;;;4.88;97.42
54369;BME280;40266;52.434;17.056;2024-02-26T07:29:21;99666.92;;;5.25;96.33
54369;BME280;40266;52.434;17.056;2024-02-26T07:35:31;99669.14;;;5.95;94.78
54369;BME280;40266;52.434;17.056;2024-02-26T07:38:21;99665.90;;;6.26;94.82
54369;BME280;40266;52.434;17.056;2024-02-26T07:42:12;99666.27;;;6.95;94.07
54369;BME280;40266;52.434;17.056;2024-02-26T07:51:34;99665.46;;;10.97;88.53
54369;BME280;40266;52.434;17.056;2024-02-26T07:54:48;99662.81;;;12.37;86.34
54369;BME280;40266;52.434;17.056;2024-02-26T08:00:46;99668.12;;;14.68;82.79
54369;BME280;40266;52.434;17.056;2024-02-26T08:03:31;99668.90;;;15.68;79.66
54369;BME280;40266;52.434;17.056;2024-02-26T08:06:16;99675.67;;;16.37;77.76
54369;BME280;40266;52.434;17.056;2024-02-26T08:08:59;99682.78;;;16.48;75.66
54369;BME280;40266;52.434;17.056;2024-02-26T08:11:55;99689.21;;;17.05;72.95
54369;BME280;40266;52.434;17.056;2024-02-26T08:14:42;99690.27;;;17.68;70.79
54369;BME280;40266;52.434;17.056;2024-02-26T08:17:26;99696.58;;;18.00;68.12
54369;BME280;40266;52.434;17.056;2024-02-26T08:20:10;99695.02;;;18.27;67.44
54369;BME280;40266;52.434;17.056;2024-02-26T08:22:53;99694.44;;;18.34;66.72
54369;BME280;40266;52.434;17.056;2024-02-26T08:25:39;99693.69;;;18.23;64.37
54369;BME280;40266;52.434;17.056;2024-02-26T08:28:25;99699.30;;;18.21;63.49
54369;BME280;40266;52.434;17.056;2024-02-26T08:31:08;99700.96;;;17.81;61.75
54369;BME280;40266;52.434;17.056;2024-02-26T08:33:51;99699.91;;;16.53;62.18
54369;BME280;40266;52.434;17.056;2024-02-26T08:36:40;99701.67;;;15.44;63.09
54369;BME280;40266;52.434;17.056;2024-02-26T08:39:26;99707.80;;;14.33;64.47
54369;BME280;40266;52.434;17.056;2024-02-26T08:42:18;99706.91;;;13.46;65.59
54369;BME280;40266;52.434;17.056;2024-02-26T08:45:16;99701.52;;;12.71;66.76
54369;BME280;40266;52.434;17.056;2024-02-26T08:48:00;99697.71;;;12.09;68.42
54369;BME280;40266;52.434;17.056;2024-02-26T08:50:53;99693.70;;;11.62;68.98
54369;BME280;40266;52.434;17.056;2024-02-26T08:53:37;99695.77;;;11.15;70.42
54369;BME280;40266;52.434;17.056;2024-02-26T08:56:28;99697.41;;;10.78;70.99
54369;BME280;40266;52.434;17.056;2024-02-26T08:59:20;99702.70;;;10.44;72.09
54369;BME280;40266;52.434;17.056;2024-02-26T09:02:53;99711.95;;;10.10;73.67
54369;BME280;40266;52.434;17.056;2024-02-26T09:05:38;99716.31;;;9.87;75.35
54369;BME280;40266;52.434;17.056;2024-02-26T09:08:30;99714.27;;;9.73;76.43
54369;BME280;40266;52.434;17.056;2024-02-26T09:11:43;99714.36;;;9.64;77.42
54369;BME280;40266;52.434;17.056;2024-02-26T09:14:46;99716.48;;;9.58;77.86
54369;BME280;40266;52.434;17.056;2024-02-26T09:17:38;99715.06;;;9.52;78.43
54369;BME280;40266;52.434;17.056;2024-02-26T09:20:44;99713.27;;;9.47;79.01
54369;BME280;40266;52.434;17.056;2024-02-26T09:23:48;99714.67;;;9.41;79.32
54369;BME280;40266;52.434;17.056;2024-02-26T09:26:47;99706.48;;;9.34;79.90
54369;BME280;40266;52.434;17.056;2024-02-26T09:29:32;99709.41;;;9.36;80.79
54369;BME280;40266;52.434;17.056;2024-02-26T09:32:36;99707.18;;;9.41;81.10
54369;BME280;40266;52.434;17.056;2024-02-26T09:35:22;99709.42;;;9.42;81.63
54369;BME280;40266;52.434;17.056;2024-02-26T09:38:05;99706.16;;;9.46;81.93
54369;BME280;40266;52.434;17.056;2024-02-26T09:41:00;99703.26;;;9.50;82.09
54369;BME280;40266;52.434;17.056;2024-02-26T09:43:48;99704.45;;;9.51;82.19
54369;BME280;40266;52.434;17.056;2024-02-26T09:46:37;99704.09;;;9.52;81.92
54369;BME280;40266;52.434;17.056;2024-02-26T09:49:31;99703.80;;;9.56;82.11
54369;BME280;40266;52.434;17.056;2024-02-26T09:52:35;99704.61;;;9.57;82.32
54369;BME280;40266;52.434;17.056;2024-02-26T09:55:24;99699.89;;;9.59;82.64
54369;BME280;40266;52.434;17.056;2024-02-26T09:58:07;99706.11;;;9.66;82.99
54369;BME280;40266;52.434;17.056;2024-02-26T10:01:34;99706.22;;;9.74;83.34
54369;BME280;40266;52.434;17.056;2024-02-26T10:04:19;99712.63;;;9.82;83.06
54369;BME280;40266;52.434;17.056;2024-02-26T10:07:11;99713.29;;;9.88;83.39
54369;BME280;40266;52.434;17.056;2024-02-26T10:10:22;99712.51;;;9.98;83.17
54369;BME280;40266;52.434;17.056;2024-02-26T10:13:11;99709.81;;;10.01;83.21
54369;BME280;40266;52.434;17.056;2024-02-26T10:16:08;99702.09;;;10.08;82.95
54369;BME280;40266;52.434;17.056;2024-02-26T10:19:25;99700.89;;;10.12;82.71
54369;BME280;40266;52.434;17.056;2024-02-26T10:22:15;99696.41;;;10.16;82.69
54369;BME280;40266;52.434;17.056;2024-02-26T10:25:07;99697.67;;;10.26;82.95
54369;BME280;40266;52.434;17.056;2024-02-26T10:28:11;99704.70;;;10.37;82.74
54369;BME280;40266;52.434;17.056;2024-02-26T10:30:54;99701.28;;;10.46;82.65
54369;BME280;40266;52.434;17.056;2024-02-26T10:33:38;99700.43;;;10.55;82.75
54369;BME280;40266;52.434;17.056;2024-02-26T10:36:26;99698.36;;;10.65;82.19
54369;BME280;40266;52.434;17.056;2024-02-26T10:39:29;99699.72;;;10.71;81.84
54369;BME280;40266;52.434;17.056;2024-02-26T10:42:46;99702.91;;;10.75;81.31
54369;BME280;40266;52.434;17.056;2024-02-26T10:45:34;99700.40;;;10.82;81.40
54369;BME280;40266;52.434;17.056;2024-02-26T10:48:44;99698.27;;;10.88;81.35
54369;BME280;40266;52.434;17.056;2024-02-26T10:51:27;99694.30;;;10.92;81.03
54369;BME280;40266;52.434;17.056;2024-02-26T10:54:29;99696.27;;;10.96;80.43
54369;BME280;40266;52.434;17.056;2024-02-26T10:57:35;99701.58;;;10.99;80.03
54369;BME280;40266;52.434;17.056;2024-02-26T11:01:01;99696.88;;;11.08;80.05
54369;BME280;40266;52.434;17.056;2024-02-26T11:04:11;99695.80;;;11.19;79.79
54369;BME280;40266;52.434;17.056;2024-02-26T11:07:09;99692.33;;;11.24;78.88
54369;BME280;40266;52.434;17.056;2024-02-26T11:10:17;99691.95;;;11.25;78.73
54369;BME280;40266;52.434;17.056;2024-02-26T11:13:39;99690.27;;;11.32;78.26
54369;BME280;40266;52.434;17.056;2024-02-26T11:16:56;99689.08;;;11.32;77.40
54369;BME280;40266;52.434;17.056;2024-02-26T11:19:43;99682.33;;;11.34;77.62
54369;BME280;40266;52.434;17.056;2024-02-26T11:22:50;99683.90;;;11.39;77.51
54369;BME280;40266;52.434;17.056;2024-02-26T11:26:05;99682.09;;;11.45;77.33
54369;BME280;40266;52.434;17.056;2024-02-26T11:28:53;99680.89;;;11.50;76.88
54369;BME280;40266;52.434;17.056;2024-02-26T11:32:02;99681.71;;;11.51;76.72
54369;BME280;40266;52.434;17.056;2024-02-26T11:34:59;99678.68;;;11.53;76.80
54369;BME280;40266;52.434;17.056;2024-02-26T11:38:26;99679.29;;;11.55;76.43
54369;BME280;40266;52.434;17.056;2024-02-26T11:48:32;99687.90;;;11.82;75.88
54369;BME280;40266;52.434;17.056;2024-02-26T11:55:06;99681.80;;;11.85;75.23
54369;BME280;40266;52.434;17.056;2024-02-26T11:58:12;99678.77;;;11.88;75.15
54369;BME280;40266;52.434;17.056;2024-02-26T12:02:12;99675.84;;;11.92;74.93
54369;BME280;40266;52.434;17.056;2024-02-26T12:05:41;99678.91;;;12.02;75.03
54369;BME280;40266;52.434;17.056;2024-02-26T12:08:59;99680.48;;;12.12;74.88
54369;BME280;40266;52.434;17.056;2024-02-26T12:12:01;99678.83;;;12.14;74.60
54369;BME280;40266;52.434;17.056;2024-02-26T12:15:29;99679.62;;;12.16;73.77
54369;BME280;40266;52.434;17.056;2024-02-26T12:18:52;99677.09;;;12.18;74.09
54369;BME280;40266;52.434;17.056;2024-02-26T12:21:54;99677.25;;;12.22;73.49
54369;BME280;40266;52.434;17.056;2024-02-26T12:25:37;99677.45;;;12.26;73.55
54369;BME280;40266;52.434;17.056;2024-02-26T12:32:47;99679.00;;;12.22;72.59
54369;BME280;40266;52.434;17.056;2024-02-26T12:36:08;99677.09;;;12.26;72.76
54369;BME280;40266;52.434;17.056;2024-02-26T12:39:17;99680.47;;;12.30;72.09
54369;BME280;40266;52.434;17.056;2024-02-26T12:42:29;99681.39;;;12.29;71.66
54369;BME280;40266;52.434;17.056;2024-02-26T12:45:41;99673.10;;;12.30;71.94
54369;BME280;40266;52.434;17.056;2024-02-26T12:49:16;99679.25;;;12.34;71.28
54369;BME280;40266;52.434;17.056;2024-02-26T12:52:52;99678.60;;;12.32;70.89
54369;BME280;40266;52.434;17.056;2024-02-26T12:56:38;99678.16;;;12.30;70.83
54369;BME280;40266;52.434;17.056;2024-02-26T13:06:53;99676.71;;;12.31;71.10
54369;BME280;40266;52.434;17.056;2024-02-26T13:10:10;99681.38;;;12.37;70.91
54369;BME280;40266;52.434;17.056;2024-02-26T13:13:41;99683.17;;;12.41;71.58
54369;BME280;40266;52.434;17.056;2024-02-26T13:17:09;99683.82;;;12.46;71.70
54369;BME280;40266;52.434;17.056;2024-02-26T13:24:02;99684.23;;;12.53;71.23
54369;BME280;40266;52.434;17.056;2024-02-26T13:27:29;99687.77;;;12.53;71.33
54369;BME280;40266;52.434;17.056;2024-02-26T13:31:04;99687.08;;;12.56;71.52
54369;BME280;40266;52.434;17.056;2024-02-26T13:35:03;99689.75;;;12.59;71.41
54369;BME280;40266;52.434;17.056;2024-02-26T13:38:25;99689.34;;;12.61;71.19
54369;BME280;40266;52.434;17.056;2024-02-26T13:42:00;99684.95;;;12.57;70.84
54369;BME280;40266;52.434;17.056;2024-02-26T13:49:30;99687.61;;;12.52;70.43
54369;BME280;40266;52.434;17.056;2024-02-26T13:53:03;99686.63;;;12.46;70.40
54369;BME280;40266;52.434;17.056;2024-02-26T13:56:25;99689.79;;;12.46;70.92
54369;BME280;40266;52.434;17.056;2024-02-26T14:03:51;99691.98;;;12.44;71.22
54369;BME280;40266;52.434;17.056;2024-02-26T14:07:25;99693.67;;;12.41;71.16
54369;BME280;40266;52.434;17.056;2024-02-26T14:11:09;99690.34;;;12.40;71.81
54369;BME280;40266;52.434;17.056;2024-02-26T14:14:27;99688.95;;;12.40;72.15
54369;BME280;40266;52.434;17.056;2024-02-26T14:21:49;99690.95;;;12.42;72.40
54369;BME280;40266;52.434;17.056;2024-02-26T14:25:25;99692.54;;;12.43;72.26
54369;BME280;40266;52.434;17.056;2024-02-26T14:29:07;99692.56;;;12.42;72.67
54369;BME280;40266;52.434;17.056;2024-02-26T14:32:50;99697.27;;;12.38;72.74
54369;BME280;40266;52.434;17.056;2024-02-26T14:51:02;99696.44;;;11.97;73.17
54369;BME280;40266;52.434;17.056;2024-02-26T14:54:28;99691.66;;;11.89;73.22
54369;BME280;40266;52.434;17.056;2024-02-26T14:57:54;99691.10;;;11.81;73.34
54369;BME280;40266;52.434;17.056;2024-02-26T15:05:25;99700.06;;;11.66;73.72
54369;BME280;40266;52.434;17.056;2024-02-26T15:08:33;99704.08;;;11.61;74.18
54369;BME280;40266;52.434;17.056;2024-02-26T15:11:50;99705.08;;;11.57;74.41
54369;BME280;40266;52.434;17.056;2024-02-26T15:14:58;99709.58;;;11.54;74.29
54369;BME280;40266;52.434;17.056;2024-02-26T15:18:22;99710.44;;;11.50;74.50
54369;BME280;40266;52.434;17.056;2024-02-26T15:22:06;99714.45;;;11.45;74.80
54369;BME280;40266;52.434;17.056;2024-02-26T15:28:46;99718.59;;;11.37;74.73
54369;BME280;40266;52.434;17.056;2024-02-26T15:36:02;99718.84;;;11.25;75.17
54369;BME280;40266;52.434;17.056;2024-02-26T15:39:24;99720.27;;;11.19;75.59
54369;BME280;40266;52.434;17.056;2024-02-26T15:50:14;99726.45;;;11.02;75.59
54369;BME280;40266;52.434;17.056;2024-02-26T16:01:04;99739.37;;;10.92;76.07
54369;BME280;40266;52.434;17.056;2024-02-26T16:08:01;99744.14;;;10.86;76.40
54369;BME280;40266;52.434;17.056;2024-02-26T16:11:39;99747.52;;;10.84;76.80
54369;BME280;40266;52.434;17.056;2024-02-26T16:15:01;99748.80;;;10.82;76.74
54369;BME280;40266;52.434;17.056;2024-02-26T16:18:48;99754.46;;;10.79;77.28
54369;BME280;40266;52.434;17.056;2024-02-26T16:22:07;99761.70;;;10.77;77.63
54369;BME280;40266;52.434;17.056;2024-02-26T16:32:34;99768.92;;;10.70;78.49
54369;BME280;40266;52.434;17.056;2024-02-26T16:40:09;99774.65;;;10.60;79.25
54369;BME280;40266;52.434;17.056;2024-02-26T16:43:48;99777.10;;;10.54;79.68
54369;BME280;40266;52.434;17.056;2024-02-26T16:47:28;99776.98;;;10.47;79.95
54369;BME280;40266;52.434;17.056;2024-02-26T16:50:52;99781.55;;;10.41;80.18
54369;BME280;40266;52.434;17.056;2024-02-26T16:54:41;99786.08;;;10.35;80.45
54369;BME280;40266;52.434;17.056;2024-02-26T16:58:11;99790.04;;;10.31;80.52
54369;BME280;40266;52.434;17.056;2024-02-26T17:01:57;99789.21;;;10.29;80.72
54369;BME280;40266;52.434;17.056;2024-02-26T17:05:06;99796.55;;;10.29;81.01
54369;BME280;40266;52.434;17.056;2024-02-26T17:12:02;99802.48;;;10.29;81.33
54369;BME280;40266;52.434;17.056;2024-02-26T17:15:30;99803.20;;;10.28;81.78
54369;BME280;40266;52.434;17.056;2024-02-26T17:22:51;99806.65;;;10.23;82.56
54369;BME280;40266;52.434;17.056;2024-02-26T17:26:41;99807.42;;;10.20;82.99
54369;BME280;40266;52.434;17.056;2024-02-26T17:30:20;99807.52;;;10.18;82.99
54369;BME280;40266;52.434;17.056;2024-02-26T17:37:50;99808.16;;;10.13;83.37
54369;BME280;40266;52.434;17.056;2024-02-26T17:48:54;99805.46;;;10.04;83.42
54369;BME280;40266;52.434;17.056;2024-02-26T17:52:26;99802.23;;;10.01;83.51
54369;BME280;40266;52.434;17.056;2024-02-26T18:18:24;99834.32;;;9.89;83.83
54369;BME280;40266;52.434;17.056;2024-02-26T18:21:40;99835.06;;;9.87;84.26
54369;BME280;40266;52.434;17.056;2024-02-26T18:28:59;99843.63;;;9.80;85.43
54369;BME280;40266;52.434;17.056;2024-02-26T18:36:15;99847.67;;;9.73;86.02
54369;BME280;40266;52.434;17.056;2024-02-26T18:39:59;99851.08;;;9.69;86.23
54369;BME280;40266;52.434;17.056;2024-02-26T18:43:10;99855.91;;;9.65;86.68
54369;BME280;40266;52.434;17.056;2024-02-26T18:46:23;99851.11;;;9.62;86.97
54369;BME280;40266;52.434;17.056;2024-02-26T18:53:05;99851.61;;;9.56;87.18
54369;BME280;40266;52.434;17.056;2024-02-26T18:56:51;99859.34;;;9.54;87.45
54369;BME280;40266;52.434;17.056;2024-02-26T19:00:27;99862.02;;;9.51;87.40
54369;BME280;40266;52.434;17.056;2024-02-26T19:04:19;99867.84;;;9.48;87.76
54369;BME280;40266;52.434;17.056;2024-02-26T19:07:50;99868.59;;;9.45;87.85
54369;BME280;40266;52.434;17.056;2024-02-26T19:11:14;99870.34;;;9.46;88.17
54369;BME280;40266;52.434;17.056;2024-02-26T19:14:39;99868.09;;;9.46;88.02
54369;BME280;40266;52.434;17.056;2024-02-26T19:17:51;99873.14;;;9.46;88.13
54369;BME280;40266;52.434;17.056;2024-02-26T19:21:31;99870.86;;;9.46;88.23
54369;BME280;40266;52.434;17.056;2024-02-26T19:24:48;99871.75;;;9.46;88.17
54369;BME280;40266;52.434;17.056;2024-02-26T19:28:34;99873.45;;;9.47;88.23
54369;BME280;40266;52.434;17.056;2024-02-26T19:31:59;99876.26;;;9.46;88.38
54369;BME280;40266;52.434;17.056;2024-02-26T19:34:52;99875.17;;;9.47;88.47
54369;BME280;40266;52.434;17.056;2024-02-26T19:38:09;99875.33;;;9.49;88.56
54369;BME280;40266;52.434;17.056;2024-02-26T19:45:43;99874.77;;;9.50;88.71
54369;BME280;40266;52.434;17.056;2024-02-26T19:48:40;99880.19;;;9.49;88.74
54369;BME280;40266;52.434;17.056;2024-02-26T19:56:09;99871.35;;;9.47;89.21
54369;BME280;40266;52.434;17.056;2024-02-26T19:59:28;99867.54;;;9.46;89.49
54369;BME280;40266;52.434;17.056;2024-02-26T20:06:33;99869.40;;;9.41;89.51
54369;BME280;40266;52.434;17.056;2024-02-26T20:09:57;99875.36;;;9.41;89.49
54369;BME280;40266;52.434;17.056;2024-02-26T20:16:47;99881.14;;;9.39;89.80
54369;BME280;40266;52.434;17.056;2024-02-26T20:20:04;99887.23;;;9.39;89.85
54369;BME280;40266;52.434;17.056;2024-02-26T20:23:16;99885.86;;;9.38;89.90
54369;BME280;40266;52.434;17.056;2024-02-26T20:26:34;99881.91;;;9.37;89.89
54369;BME280;40266;52.434;17.056;2024-02-26T20:30:06;99882.79;;;9.36;90.08
54369;BME280;40266;52.434;17.056;2024-02-26T20:33:45;99883.01;;;9.35;90.11
54369;BME280;40266;52.434;17.056;2024-02-26T20:40:39;99887.04;;;9.34;90.36
54369;BME280;40266;52.434;17.056;2024-02-26T20:43:54;99883.03;;;9.33;90.71
54369;BME280;40266;52.434;17.056;2024-02-26T20:47:26;99886.23;;;9.31;90.69
54369;BME280;40266;52.434;17.056;2024-02-26T20:53:56;99880.95;;;9.26;90.80
54369;BME280;40266;52.434;17.056;2024-02-26T21:01:01;99880.45;;;9.18;91.02
54369;BME280;40266;52.434;17.056;2024-02-26T21:07:15;99889.70;;;9.10;91.21
54369;BME280;40266;52.434;17.056;2024-02-26T21:10:39;99890.80;;;9.07;91.28
54369;BME280;40266;52.434;17.056;2024-02-26T21:13:56;99897.33;;;9.04;91.33
54369;BME280;40266;52.434;17.056;2024-02-26T21:17:27;99897.23;;;9.01;91.64
54369;BME280;40266;52.434;17.056;2024-02-26T21:20:56;99905.29;;;8.99;91.76
54369;BME280;40266;52.434;17.056;2024-02-26T21:24:07;99906.23;;;8.96;91.89
54369;BME280;40266;52.434;17.056;2024-02-26T21:27:47;99913.42;;;8.94;91.96
54369;BME280;40266;52.434;17.056;2024-02-26T21:31:08;99914.91;;;8.90;92.15
54369;BME280;40266;52.434;17.056;2024-02-26T21:34:14;99916.94;;;8.84;92.29
54369;BME280;40266;52.434;17.056;2024-02-26T21:37:56;99924.19;;;8.79;92.53
54369;BME280;40266;52.434;17.056;2024-02-26T21:41:02;99925.52;;;8.75;92.71
54369;BME280;40266;52.434;17.056;2024-02-26T21:44:14;99924.52;;;8.73;93.20
54369;BME280;40266;52.434;17.056;2024-02-26T21:47:44;99923.30;;;8.72;93.34
54369;BME280;40266;52.434;17.056;2024-02-26T21:51:15;99928.38;;;8.71;93.53
54369;BME280;40266;52.434;17.056;2024-02-26T21:54:53;99927.50;;;8.71;93.76
54369;BME280;40266;52.434;17.056;2024-02-26T21:58:58;99925.28;;;8.70;93.85
54369;BME280;40266;52.434;17.056;2024-02-26T22:02:55;99927.55;;;8.69;93.99
54369;BME280;40266;52.434;17.056;2024-02-26T22:06:15;99926.92;;;8.65;94.20
54369;BME280;40266;52.434;17.056;2024-02-26T22:13:49;99925.54;;;8.65;94.46
54369;BME280;40266;52.434;17.056;2024-02-26T22:17:09;99921.20;;;8.64;94.84
54369;BME280;40266;52.434;17.056;2024-02-26T22:20:55;99924.72;;;8.63;95.04
54369;BME280;40266;52.434;17.056;2024-02-26T22:24:23;99928.63;;;8.59;95.00
54369;BME280;40266;52.434;17.056;2024-02-26T22:31:13;99930.55;;;8.51;95.36
54369;BME280;40266;52.434;17.056;2024-02-26T22:34:36;99931.46;;;8.49;95.39
54369;BME280;40266;52.434;17.056;2024-02-26T22:41:39;99943.94;;;8.42;95.77
54369;BME280;40266;52.434;17.056;2024-02-26T22:45:19;99952.00;;;8.39;95.94
54369;BME280;40266;52.434;17.056;2024-02-26T22:48:52;99951.48;;;8.37;96.11
54369;BME280;40266;52.434;17.056;2024-02-26T22:59:48;99948.42;;;8.35;97.07
54369;BME280;40266;52.434;17.056;2024-02-26T23:14:35;99964.07;;;8.35;98.96
54369;BME280;40266;52.434;17.056;2024-02-26T23:17:47;99970.84;;;8.35;99.10
54369;BME280;40266;52.434;17.056;2024-02-26T23:21:08;99969.13;;;8.35;99.54
54369;BME280;40266;52.434;17.056;2024-02-26T23:24:33;99971.91;;;8.33;99.50
54369;BME280;40266;52.434;17.056;2024-02-26T23:27:49;99970.20;;;8.32;99.77
54369;BME280;40266;52.434;17.056;2024-02-26T23:38:34;99973.91;;;8.29;100.00
54369;BME280;40266;52.434;17.056;2024-02-26T23:42:00;99972.54;;;8.28;100.00
54369;BME280;40266;52.434;17.056;2024-02-26T23:45:41;99970.16;;;8.26;100.00
